createdAt,value
2023-03-10T00:01:00.129Z,1.50
2023-03-10T00:06:03.898Z,1.35
2023-03-10T00:11:06.958Z,1.30
2023-03-10T00:16:17.315Z,1.15
2023-03-10T00:21:22.338Z,1.20
2023-03-10T00:26:28.025Z,1.38
2023-03-10T00:31:34.609Z,1.20
2023-03-10T00:36:37.581Z,1.42
2023-03-10T00:41:40.414Z,1.20
2023-03-10T00:46:44.697Z,1.42
2023-03-10T00:51:47.623Z,1.10
2023-03-10T00:56:50.543Z,1.30
2023-03-10T01:01:54.778Z,1.20
2023-03-10T01:06:57.682Z,1.27
2023-03-10T01:12:00.508Z,1.42
2023-03-10T01:17:05.825Z,1.35
2023-03-10T01:22:08.656Z,1.27
2023-03-10T01:27:11.502Z,1.40
2023-03-10T01:32:15.730Z,1.20
2023-03-10T01:37:18.863Z,1.20
2023-03-10T01:42:21.808Z,1.73
2023-03-10T01:47:25.989Z,1.58
2023-03-10T01:52:33.534Z,1.50
2023-03-10T01:57:40.250Z,1.52
2023-03-10T02:02:53.074Z,1.58
2023-03-10T02:07:57.335Z,1.40
2023-03-10T02:13:00.251Z,1.58
2023-03-10T02:18:07.893Z,1.33
2023-03-10T02:23:15.431Z,1.50
2023-03-10T02:28:20.117Z,1.23
2023-03-10T02:33:26.709Z,1.25
2023-03-10T02:38:29.558Z,1.40
2023-03-10T02:43:35.450Z,1.23
2023-03-10T02:48:39.580Z,1.27
2023-03-10T02:53:42.428Z,1.30
2023-03-10T02:58:46.714Z,1.25
2023-03-10T03:03:49.682Z,1.00
2023-03-10T03:08:52.512Z,1.30
2023-03-10T03:13:56.717Z,1.27
2023-03-10T03:18:59.560Z,1.20
2023-03-10T03:24:02.402Z,1.20
2023-03-10T03:29:06.598Z,1.05
2023-03-10T03:34:09.464Z,1.20
2023-03-10T03:39:13.530Z,1.00
2023-03-10T03:44:17.688Z,1.00
2023-03-10T03:49:20.544Z,0.90
2023-03-10T03:54:23.382Z,0.80
2023-03-10T03:59:27.601Z,0.75
2023-03-10T04:04:30.461Z,0.95
2023-03-10T04:09:33.622Z,0.80
2023-03-10T04:14:38.504Z,0.70
2023-03-10T04:19:41.352Z,0.50
2023-03-10T04:24:44.285Z,0.55
2023-03-10T04:29:48.458Z,0.63
2023-03-10T04:34:51.465Z,0.50
2023-03-10T04:39:54.352Z,0.60
2023-03-10T04:44:58.681Z,0.63
2023-03-10T04:50:01.752Z,0.40
2023-03-10T04:55:04.965Z,0.50
2023-03-10T05:00:12.461Z,0.50
2023-03-10T05:05:15.343Z,0.60
2023-03-10T05:10:18.627Z,0.57
2023-03-10T05:15:22.881Z,0.40
2023-03-10T05:20:25.748Z,0.77
2023-03-10T05:25:28.587Z,0.60
2023-03-10T05:30:32.736Z,0.60
2023-03-10T05:35:35.658Z,0.50
2023-03-10T05:40:38.515Z,0.60
2023-03-10T05:45:42.719Z,0.50
2023-03-10T05:50:45.540Z,0.40
2023-03-10T05:55:48.398Z,0.50
2023-03-10T06:00:53.717Z,1.20
2023-03-10T06:05:56.775Z,1.63
2023-03-10T06:11:00.471Z,1.50
2023-03-10T06:16:06.776Z,1.73
2023-03-10T06:21:12.397Z,1.70
2023-03-10T06:26:17.910Z,2.22
2023-03-10T06:31:25.100Z,2.35
2023-03-10T06:36:31.696Z,2.83
2023-03-10T06:41:36.284Z,2.08
2023-03-10T06:46:40.445Z,1.92
2023-03-10T06:51:43.342Z,1.98
2023-03-10T06:56:46.230Z,2.20
2023-03-10T07:01:50.427Z,2.20
2023-03-10T07:06:53.543Z,1.92
2023-03-10T07:11:56.385Z,2.00
2023-03-10T07:17:00.670Z,2.47
2023-03-10T07:22:03.634Z,2.20
2023-03-10T07:27:07.241Z,1.98
2023-03-10T07:32:11.413Z,1.75
2023-03-10T07:37:14.285Z,2.10
2023-03-10T07:42:17.122Z,1.83
2023-03-10T07:47:21.462Z,1.70
2023-03-10T07:52:24.306Z,1.95
2023-03-10T07:57:29.064Z,1.83
2023-03-10T08:02:33.323Z,1.58
2023-03-10T08:07:36.228Z,2.22
2023-03-10T08:12:39.350Z,2.30
2023-03-10T08:17:43.719Z,2.05
2023-03-10T08:22:46.567Z,1.60
2023-03-10T08:27:50.313Z,1.75
2023-03-10T08:32:54.491Z,1.25
2023-03-10T08:37:57.359Z,1.58
2023-03-10T08:43:00.232Z,1.90
2023-03-10T08:48:04.737Z,1.75
2023-03-10T08:53:07.663Z,1.85
2023-03-10T08:58:10.558Z,1.88
2023-03-10T09:03:15.683Z,1.90
2023-03-10T09:08:18.882Z,1.70
2023-03-10T09:13:21.774Z,1.52
2023-03-10T09:18:26.060Z,1.58
2023-03-10T09:23:29.006Z,1.48
2023-03-10T09:28:31.903Z,1.40
2023-03-10T09:33:36.346Z,1.63
2023-03-10T09:38:39.320Z,1.42
2023-03-10T09:43:50.452Z,1.30
2023-03-10T09:49:05.940Z,1.50
2023-03-10T09:54:27.678Z,0.85
2023-03-10T09:59:36.294Z,1.50
2023-03-10T10:04:42.909Z,1.10
2023-03-10T10:09:53.302Z,1.20
2023-03-10T10:14:59.276Z,1.25
2023-03-10T10:20:07.119Z,1.27
2023-03-10T10:25:20.415Z,1.42
2023-03-10T10:30:30.606Z,1.15
2023-03-10T10:35:36.927Z,1.05
2023-03-10T10:40:49.540Z,1.20
2023-03-10T10:45:55.650Z,1.10
2023-03-10T10:50:59.986Z,0.88
2023-03-10T10:56:06.030Z,0.77
2023-03-10T11:01:12.361Z,0.82
2023-03-10T11:06:25.243Z,1.10
2023-03-10T11:11:36.409Z,1.02
2023-03-10T11:16:49.340Z,0.80
2023-03-10T11:21:57.281Z,0.85
2023-03-10T11:27:09.636Z,1.17
2023-03-10T11:32:21.970Z,0.93
2023-03-10T11:37:31.961Z,0.82
2023-03-10T11:42:40.082Z,1.08
2023-03-10T11:47:58.923Z,0.90
2023-03-10T11:53:11.918Z,0.80
2023-03-10T11:58:23.846Z,0.60
2023-03-10T12:03:41.900Z,0.73
2023-03-10T12:08:47.648Z,0.70
2023-03-10T12:13:53.314Z,1.10
2023-03-10T12:18:56.566Z,0.60
2023-03-10T12:24:02.462Z,0.80
2023-03-10T12:29:31.921Z,0.75
2023-03-10T12:34:34.832Z,0.70
2023-03-10T12:39:41.562Z,0.77
2023-03-10T12:44:55.952Z,0.70
2023-03-10T12:50:05.772Z,0.70
2023-03-10T12:55:21.763Z,6.07
2023-03-10T13:00:36.406Z,3.67
2023-03-10T13:05:42.791Z,2.10
2023-03-10T13:10:47.493Z,1.90
2023-03-10T13:16:00.167Z,1.70
2023-03-10T13:21:03.178Z,1.70
2023-03-10T13:26:15.590Z,1.55
2023-03-10T13:31:21.921Z,1.30
2023-03-10T13:36:32.304Z,1.00
2023-03-10T13:41:41.799Z,1.23
2023-03-10T13:46:49.025Z,1.30
2023-03-10T13:51:57.012Z,1.30
2023-03-10T13:57:08.155Z,1.20
2023-03-10T14:02:19.102Z,0.93
2023-03-10T14:07:23.623Z,1.00
2023-03-10T14:12:38.839Z,1.02
2023-03-10T14:17:43.140Z,1.08
2023-03-10T14:22:46.012Z,0.90
2023-03-10T14:27:56.058Z,1.40
2023-03-10T14:33:00.877Z,1.42
2023-03-10T14:38:03.770Z,1.30
2023-03-10T14:43:08.073Z,1.08
2023-03-10T14:48:15.182Z,1.40
2023-03-10T14:53:20.736Z,1.38
2023-03-10T14:58:29.004Z,1.35
2023-03-10T15:03:31.842Z,1.25
2023-03-10T15:08:34.705Z,1.23
2023-03-10T15:13:39.679Z,1.20
2023-03-10T15:18:42.651Z,1.00
2023-03-10T15:23:45.706Z,1.20
2023-03-10T15:28:49.889Z,1.13
2023-03-10T15:33:52.756Z,1.00
2023-03-10T15:38:55.608Z,0.98
2023-03-10T15:44:00.013Z,1.15
2023-03-10T15:49:03.415Z,1.05
2023-03-10T15:54:06.339Z,0.85
2023-03-10T15:59:10.669Z,0.90
2023-03-10T16:04:13.469Z,0.70
2023-03-10T16:09:16.270Z,1.00
2023-03-10T16:14:20.466Z,0.90
2023-03-10T16:19:23.331Z,0.95
2023-03-10T16:24:26.207Z,0.90
2023-03-10T16:29:30.343Z,0.75
2023-03-10T16:34:33.263Z,0.70
2023-03-10T16:39:36.568Z,0.70
2023-03-10T16:44:40.774Z,0.88
2023-03-10T16:49:43.712Z,0.73
2023-03-10T16:54:47.385Z,0.82
2023-03-10T16:59:51.599Z,0.80
2023-03-10T17:04:55.290Z,0.80
2023-03-10T17:09:58.149Z,0.70
2023-03-10T17:15:02.444Z,0.82
2023-03-10T17:20:07.254Z,0.90
2023-03-10T17:25:13.531Z,0.80
2023-03-10T17:30:19.971Z,1.38
2023-03-10T17:35:22.876Z,2.88
2023-03-10T17:40:25.708Z,1.92
2023-03-10T17:45:29.908Z,2.17
2023-03-10T17:50:32.946Z,2.70
2023-03-10T17:55:36.577Z,1.80
2023-03-10T18:00:40.769Z,1.50
2023-03-10T18:05:44.567Z,1.48
2023-03-10T18:10:47.376Z,1.52
2023-03-10T18:15:52.334Z,1.50
2023-03-10T18:20:55.336Z,1.70
2023-03-10T18:25:58.916Z,1.30
2023-03-10T18:31:03.819Z,1.75
2023-03-10T18:36:08.746Z,1.15
2023-03-10T18:41:11.953Z,1.83
2023-03-10T18:46:16.225Z,1.55
2023-03-10T18:51:19.201Z,1.27
2023-03-10T18:56:23.754Z,1.15
2023-03-10T19:01:27.978Z,1.30
2023-03-10T19:06:31.733Z,1.10
2023-03-10T19:11:36.276Z,1.50
2023-03-10T19:16:40.732Z,0.90
2023-03-10T19:21:43.764Z,0.88
2023-03-10T19:26:46.967Z,1.20
2023-03-10T19:31:51.163Z,1.27
2023-03-10T19:36:53.990Z,0.88
2023-03-10T19:41:56.792Z,1.10
2023-03-10T19:47:01.129Z,1.00
2023-03-10T19:52:03.980Z,1.20
2023-03-10T19:57:12.880Z,1.05
2023-03-10T20:02:18.747Z,0.88
2023-03-10T20:07:21.638Z,0.90
2023-03-10T20:12:24.502Z,1.08
2023-03-10T20:17:29.254Z,1.05
2023-03-10T20:22:32.130Z,0.88
2023-03-10T20:27:35.277Z,1.17
2023-03-10T20:32:39.569Z,1.00
2023-03-10T20:37:42.617Z,0.93
2023-03-10T20:42:45.535Z,0.85
2023-03-10T20:47:50.395Z,0.90
2023-03-10T20:52:53.535Z,0.80
2023-03-10T20:57:58.352Z,0.93
2023-03-10T21:03:02.585Z,1.00
2023-03-10T21:08:06.249Z,0.90
2023-03-10T21:13:09.096Z,0.93
2023-03-10T21:18:13.346Z,0.77
2023-03-10T21:23:16.198Z,0.90
2023-03-10T21:28:19.152Z,1.08
2023-03-10T21:33:23.694Z,0.80
2023-03-10T21:38:26.604Z,1.23
2023-03-10T21:43:29.991Z,0.77
2023-03-10T21:48:34.200Z,0.80
2023-03-10T21:53:37.079Z,0.80
2023-03-10T21:58:40.066Z,0.90
2023-03-10T22:03:44.777Z,0.82
2023-03-10T22:08:47.772Z,2.30
2023-03-10T22:13:50.638Z,1.30
2023-03-10T22:18:54.986Z,1.17
2023-03-10T22:23:59.876Z,0.80
2023-03-10T22:29:02.765Z,0.98
2023-03-10T22:34:06.926Z,0.77
2023-03-10T22:39:09.760Z,1.63
2023-03-10T22:44:12.612Z,1.10
2023-03-10T22:49:17.425Z,0.80
2023-03-10T22:54:20.257Z,0.85
2023-03-10T22:59:23.081Z,0.80
2023-03-10T23:04:27.272Z,1.38
2023-03-10T23:09:30.165Z,1.10
2023-03-10T23:14:33.028Z,0.77
2023-03-10T23:19:37.182Z,0.90
2023-03-10T23:24:40.029Z,0.70
2023-03-10T23:29:42.884Z,0.77
2023-03-10T23:34:47.081Z,0.77
2023-03-10T23:39:49.918Z,0.90
2023-03-10T23:44:52.789Z,0.80
2023-03-10T23:49:57.952Z,1.10
2023-03-10T23:55:00.944Z,0.70
